createdAt,value
2024-04-18T00:01:33.120Z,5.1
2024-04-18T00:16:43.479Z,5.3
2024-04-18T00:32:02.073Z,5.2
2024-04-18T00:47:12.321Z,5.3
2024-04-18T01:02:15.165Z,5.3
2024-04-18T01:32:36.287Z,5.4
2024-04-18T01:47:54.670Z,5.4
2024-04-18T02:03:05.144Z,5
2024-04-18T02:18:07.850Z,5.1
2024-04-18T02:33:18.506Z,5.7
2024-04-18T02:48:28.960Z,5.7
2024-04-18T03:03:47.198Z,5.5
2024-04-18T03:18:57.690Z,5.7
2024-04-18T04:04:21.719Z,4.7
2024-04-18T04:19:39.852Z,4.6
2024-04-18T04:35:10.667Z,4.6
2024-04-18T04:49:53.208Z,4.7
2024-04-18T05:20:14.183Z,5.4
2024-04-18T05:50:35.376Z,5.7
2024-04-18T06:05:45.587Z,5.8
2024-04-18T06:20:56.148Z,5.6
2024-04-18T07:06:35.327Z,6.8
2024-04-18T07:21:38.092Z,6.9
2024-04-18T07:36:56.242Z,7.1
2024-04-18T07:52:06.762Z,7.7
2024-04-18T08:07:09.575Z,8.4
2024-04-18T08:22:19.972Z,8.8
2024-04-18T08:37:38.270Z,8.8
2024-04-18T08:52:40.941Z,9.2
2024-04-18T09:07:59.314Z,9
2024-04-18T09:38:12.959Z,10.1
2024-04-18T09:53:23.036Z,10.8
2024-04-18T10:08:33.409Z,9.7
2024-04-18T10:23:43.964Z,10.8
2024-04-18T10:38:54.362Z,10.1
2024-04-18T11:09:15.326Z,11.5
2024-04-18T11:24:33.497Z,12.3
2024-04-18T11:39:36.340Z,12.4
2024-04-18T11:54:54.850Z,15
2024-04-18T12:09:57.399Z,11.8
2024-04-18T12:25:07.796Z,13.5
2024-04-18T12:40:18.308Z,15.7
2024-04-18T12:55:28.690Z,15
2024-04-18T13:10:46.973Z,12.1
2024-04-18T13:25:49.664Z,13.3
2024-04-18T14:11:21.277Z,11.7
2024-04-18T14:41:42.149Z,11.8
2024-04-18T14:57:01.943Z,11.8
2024-04-18T15:12:04.876Z,12.4
2024-04-18T15:27:13.774Z,12.2
2024-04-18T15:42:24.181Z,12.3
2024-04-18T16:12:45.059Z,11.2
2024-04-18T16:58:24.273Z,11.1
2024-04-18T17:13:26.999Z,11
2024-04-18T17:28:37.472Z,10.8
2024-04-18T17:43:48.090Z,10.5
2024-04-18T17:58:58.434Z,10.3
2024-04-18T18:14:17.094Z,10.1
2024-04-18T18:44:30.213Z,9.6
2024-04-18T19:14:51.131Z,9.1
2024-04-18T19:30:02.135Z,9
2024-04-18T19:45:12.182Z,8.9
2024-04-18T20:00:23.173Z,8.8
2024-04-18T21:01:04.729Z,8.3
2024-04-18T21:16:15.506Z,8.3
2024-04-18T21:46:44.096Z,8.1
2024-04-18T22:01:46.855Z,8
2024-04-18T22:17:05.162Z,7.9
2024-04-18T22:32:08.908Z,7.8
2024-04-18T22:47:18.580Z,7.7
2024-04-18T23:02:36.733Z,7.7
2024-04-18T23:17:40.414Z,7.6
